createdAt,value
2019-01-12T00:01:40.118Z,101866.78
2019-01-12T00:04:09.445Z,101866.14
2019-01-12T00:06:38.584Z,101863.90
2019-01-12T00:09:09.091Z,101866.00
2019-01-12T00:11:38.268Z,101862.64
2019-01-12T00:14:07.412Z,101860.18
2019-01-12T00:16:36.583Z,101859.69
2019-01-12T00:19:05.716Z,101860.05
2019-01-12T00:21:35.332Z,101854.45
2019-01-12T00:24:04.554Z,101853.64
2019-01-12T00:26:33.700Z,101853.20
2019-01-12T00:29:02.876Z,101857.09
2019-01-12T00:31:32.013Z,101851.22
2019-01-12T00:34:01.254Z,101854.63
2019-01-12T00:36:30.826Z,101855.08
2019-01-12T00:39:00.046Z,101850.41
2019-01-12T00:41:29.189Z,101850.73
2019-01-12T00:43:58.714Z,101838.19
2019-01-12T00:46:27.962Z,101838.64
2019-01-12T00:48:57.113Z,101844.69
2019-01-12T00:51:26.725Z,101842.89
2019-01-12T00:53:55.860Z,101847.69
2019-01-12T00:56:24.983Z,101846.03
2019-01-12T00:58:54.205Z,101845.67
2019-01-12T01:01:23.381Z,101841.23
2019-01-12T01:03:52.790Z,101846.52
2019-01-12T01:06:21.979Z,101832.64
2019-01-12T01:08:51.139Z,101835.59
2019-01-12T01:11:20.278Z,101840.43
2019-01-12T01:13:49.432Z,101835.59
2019-01-12T01:16:18.575Z,101836.53
2019-01-12T01:18:47.781Z,101835.33
2019-01-12T01:21:16.932Z,101829.55
2019-01-12T01:23:46.112Z,101837.48
2019-01-12T01:26:15.306Z,101827.89
2019-01-12T01:28:44.395Z,101827.48
2019-01-12T01:31:13.601Z,101837.59
2019-01-12T01:33:42.768Z,101832.00
2019-01-12T01:36:11.909Z,101832.53
2019-01-12T01:38:41.176Z,101833.02
2019-01-12T01:41:10.364Z,101829.04
2019-01-12T01:43:39.556Z,101832.67
2019-01-12T01:46:08.695Z,101824.38
2019-01-12T01:48:37.823Z,101822.65
2019-01-12T01:51:07.036Z,101817.89
2019-01-12T01:53:36.187Z,101829.58
2019-01-12T01:56:07.390Z,101825.24
2019-01-12T01:58:36.638Z,101825.64
2019-01-12T02:01:05.881Z,101824.34
2019-01-12T02:03:35.050Z,101816.61
2019-01-12T02:06:04.215Z,101808.80
2019-01-12T02:08:33.449Z,101806.67
2019-01-12T02:11:02.645Z,101796.45
2019-01-12T02:13:31.763Z,101808.98
2019-01-12T02:16:02.183Z,101801.20
2019-01-12T02:18:31.317Z,101799.86
2019-01-12T02:21:00.595Z,101798.16
2019-01-12T02:23:29.765Z,101808.50
2019-01-12T02:25:58.976Z,101794.62
2019-01-12T02:28:28.229Z,101788.98
2019-01-12T02:30:57.361Z,101793.28
2019-01-12T02:33:26.523Z,101794.08
2019-01-12T02:35:55.691Z,101784.20
2019-01-12T02:38:24.977Z,101782.98
2019-01-12T02:40:54.106Z,101775.20
2019-01-12T02:43:23.289Z,101783.39
2019-01-12T02:45:52.447Z,101777.30
2019-01-12T02:48:21.582Z,101776.05
2019-01-12T02:50:50.791Z,101769.25
2019-01-12T02:53:20.011Z,101771.44
2019-01-12T02:55:49.166Z,101756.76
2019-01-12T02:58:18.496Z,101762.63
2019-01-12T03:00:47.680Z,101773.91
2019-01-12T03:03:16.835Z,101765.75
2019-01-12T03:05:46.054Z,101755.33
2019-01-12T03:08:15.391Z,101758.77
2019-01-12T03:10:44.530Z,101753.67
2019-01-12T03:13:13.818Z,101750.27
2019-01-12T03:15:43.007Z,101748.44
2019-01-12T03:18:12.144Z,101743.28
2019-01-12T03:20:41.313Z,101745.48
2019-01-12T03:23:10.544Z,101736.07
2019-01-12T03:25:40.004Z,101735.95
2019-01-12T03:28:09.117Z,101733.97
2019-01-12T03:30:38.260Z,101734.77
2019-01-12T03:33:07.466Z,101735.67
2019-01-12T03:35:36.688Z,101734.02
2019-01-12T03:38:05.832Z,101733.61
2019-01-12T03:40:35.215Z,101731.55
2019-01-12T03:43:04.382Z,101728.95
2019-01-12T03:45:33.639Z,101723.31
2019-01-12T03:48:02.760Z,101716.96
2019-01-12T03:50:32.105Z,101718.22
2019-01-12T03:53:01.356Z,101721.66
2019-01-12T03:55:30.987Z,101715.53
2019-01-12T03:58:00.181Z,101711.28
2019-01-12T04:00:29.453Z,101718.58
2019-01-12T04:02:58.750Z,101719.02
2019-01-12T04:05:27.901Z,101719.06
2019-01-12T04:07:57.011Z,101702.33
2019-01-12T04:10:26.317Z,101706.22
2019-01-12T04:12:55.773Z,101704.13
2019-01-12T04:15:24.939Z,101701.52
2019-01-12T04:17:54.083Z,101702.62
2019-01-12T04:20:23.344Z,101705.14
2019-01-12T04:22:52.535Z,101707.24
2019-01-12T04:25:21.859Z,101700.48
2019-01-12T04:27:50.996Z,101703.84
2019-01-12T04:30:21.944Z,101696.50
2019-01-12T04:32:51.101Z,101695.44
2019-01-12T04:35:20.409Z,101706.62
2019-01-12T04:37:49.503Z,101703.59
2019-01-12T04:40:19.781Z,101696.11
2019-01-12T04:42:48.934Z,101708.64
2019-01-12T04:45:18.397Z,101692.80
2019-01-12T04:47:47.529Z,101687.25
2019-01-12T04:50:20.511Z,101688.67
2019-01-12T04:52:49.889Z,101669.17
2019-01-12T04:55:19.023Z,101672.80
2019-01-12T04:57:48.167Z,101674.22
2019-01-12T05:00:22.049Z,101682.86
2019-01-12T05:02:51.206Z,101678.16
2019-01-12T05:05:20.341Z,101676.55
2019-01-12T05:07:49.522Z,101668.36
2019-01-12T05:10:18.709Z,101666.27
2019-01-12T05:12:47.855Z,101662.28
2019-01-12T05:15:17.114Z,101665.48
2019-01-12T05:17:46.303Z,101649.76
2019-01-12T05:20:20.361Z,101659.23
2019-01-12T05:22:49.520Z,101650.61
2019-01-12T05:25:18.742Z,101649.80
2019-01-12T05:27:47.882Z,101645.87
2019-01-12T05:30:26.320Z,101645.06
2019-01-12T05:32:55.454Z,101636.78
2019-01-12T05:35:24.981Z,101632.45
2019-01-12T05:37:54.204Z,101634.59
2019-01-12T05:40:23.436Z,101628.95
2019-01-12T05:42:52.875Z,101622.92
2019-01-12T05:45:22.041Z,101628.42
2019-01-12T05:47:51.177Z,101621.09
2019-01-12T05:50:20.582Z,101624.53
2019-01-12T05:52:49.744Z,101621.44
2019-01-12T05:55:19.589Z,101610.26
2019-01-12T05:57:48.729Z,101617.20
2019-01-12T06:00:22.247Z,101605.92
2019-01-12T06:02:51.376Z,101598.09
2019-01-12T06:05:20.817Z,101594.20
2019-01-12T06:07:50.003Z,101597.20
2019-01-12T06:10:19.568Z,101596.75
2019-01-12T06:12:48.743Z,101585.56
2019-01-12T06:15:18.571Z,101579.93
2019-01-12T06:17:47.738Z,101576.94
2019-01-12T06:20:20.400Z,101567.00
2019-01-12T06:22:49.673Z,101569.24
2019-01-12T06:25:18.842Z,101561.06
2019-01-12T06:27:48.246Z,101565.35
2019-01-12T06:30:22.150Z,101554.17
2019-01-12T06:32:51.291Z,101556.27
2019-01-12T06:35:20.425Z,101555.47
2019-01-12T06:37:49.596Z,101551.31
2019-01-12T06:40:19.693Z,101548.31
2019-01-12T06:42:49.313Z,101535.84
2019-01-12T06:45:19.200Z,101538.83
2019-01-12T06:47:48.359Z,101532.00
2019-01-12T06:50:20.866Z,101527.20
2019-01-12T06:52:50.207Z,101529.40
2019-01-12T06:55:19.450Z,101528.55
2019-01-12T06:57:48.600Z,101525.51
2019-01-12T07:00:22.429Z,101523.81
2019-01-12T07:02:51.565Z,101520.77
2019-01-12T07:05:20.709Z,101517.33
2019-01-12T07:07:49.884Z,101515.98
2019-01-12T07:10:21.224Z,101512.49
2019-01-12T07:12:50.376Z,101507.70
2019-01-12T07:15:19.544Z,101496.44
2019-01-12T07:17:48.693Z,101492.59
2019-01-12T07:20:18.477Z,101490.89
2019-01-12T07:22:47.677Z,101484.77
2019-01-12T07:25:17.308Z,101481.27
2019-01-12T07:27:46.595Z,101481.64
2019-01-12T07:30:22.530Z,101476.00
2019-01-12T07:32:51.757Z,101470.77
2019-01-12T07:35:21.263Z,101469.47
2019-01-12T07:37:50.556Z,101470.31
2019-01-12T07:40:19.671Z,101472.81
2019-01-12T07:42:49.162Z,101468.87
2019-01-12T07:45:18.297Z,101471.02
2019-01-12T07:47:47.457Z,101464.08
2019-01-12T07:50:16.907Z,101463.19
2019-01-12T07:52:46.150Z,101454.95
2019-01-12T07:55:15.347Z,101452.80
2019-01-12T07:57:44.628Z,101451.06
2019-01-12T08:00:24.198Z,101455.70
2019-01-12T08:02:53.431Z,101454.80
2019-01-12T08:05:23.124Z,101451.30
2019-01-12T08:07:52.416Z,101453.90
2019-01-12T08:10:26.974Z,101446.97
2019-01-12T08:12:56.395Z,101449.38
2019-01-12T08:15:25.630Z,101465.29
2019-01-12T08:17:55.200Z,101468.23
2019-01-12T08:20:24.353Z,101460.90
2019-01-12T08:22:53.830Z,101462.94
2019-01-12T08:25:23.136Z,101430.95
2019-01-12T08:27:52.276Z,101423.52
2019-01-12T08:30:23.265Z,101408.84
2019-01-12T08:32:52.391Z,101405.80
2019-01-12T08:35:21.546Z,101411.83
2019-01-12T08:37:50.711Z,101395.25
2019-01-12T08:40:19.882Z,101392.71
2019-01-12T08:42:49.011Z,101390.63
2019-01-12T08:45:18.537Z,101385.94
2019-01-12T08:47:47.667Z,101397.00
2019-01-12T08:50:21.051Z,101394.22
2019-01-12T08:52:50.254Z,101375.83
2019-01-12T08:55:19.535Z,101366.19
2019-01-12T08:57:48.884Z,101368.70
2019-01-12T09:00:22.247Z,101359.91
2019-01-12T09:02:51.526Z,101353.66
2019-01-12T09:05:21.691Z,101338.23
2019-01-12T09:07:50.825Z,101345.37
2019-01-12T09:10:21.772Z,101343.05
2019-01-12T09:12:51.120Z,101349.09
2019-01-12T09:15:20.756Z,101339.61
2019-01-12T09:17:50.061Z,101348.08
2019-01-12T09:20:20.537Z,101339.50
2019-01-12T09:22:49.743Z,101335.88
2019-01-12T09:25:18.958Z,101318.09
2019-01-12T09:27:48.096Z,101320.41
2019-01-12T09:30:23.898Z,101300.27
2019-01-12T09:32:53.465Z,101304.39
2019-01-12T09:35:22.604Z,101295.16
2019-01-12T09:37:51.782Z,101291.36
2019-01-12T09:40:24.366Z,101285.83
2019-01-12T09:42:53.515Z,101285.43
2019-01-12T09:45:23.122Z,101290.68
2019-01-12T09:47:52.723Z,101282.55
2019-01-12T09:50:23.149Z,101276.12
2019-01-12T09:52:52.464Z,101272.17
2019-01-12T09:55:21.619Z,101265.73
2019-01-12T09:57:50.761Z,101273.27
2019-01-12T10:00:28.921Z,101257.44
2019-01-12T10:02:58.131Z,101253.16
2019-01-12T10:05:27.325Z,101240.72
2019-01-12T10:07:56.541Z,101243.31
2019-01-12T10:10:25.795Z,101234.28
2019-01-12T10:12:55.076Z,101234.23
2019-01-12T10:15:24.205Z,101235.98
2019-01-12T10:17:53.347Z,101235.05
2019-01-12T10:20:22.638Z,101227.26
2019-01-12T10:22:51.777Z,101232.39
2019-01-12T10:25:21.008Z,101227.20
2019-01-12T10:27:50.167Z,101222.61
2019-01-12T10:30:26.937Z,101211.17
2019-01-12T10:32:56.134Z,101209.03
2019-01-12T10:35:25.382Z,101195.41
2019-01-12T10:37:54.586Z,101187.88
2019-01-12T10:40:23.860Z,101178.34
2019-01-12T10:42:53.236Z,101175.23
2019-01-12T10:45:24.045Z,101179.00
2019-01-12T10:47:54.523Z,101175.17
2019-01-12T10:50:34.987Z,101174.33
2019-01-12T10:53:04.604Z,101160.38
2019-01-12T10:55:33.760Z,101153.38
2019-01-12T10:58:05.448Z,101153.89
2019-01-12T11:00:38.615Z,101148.58
2019-01-12T11:03:07.948Z,101135.61
2019-01-12T11:05:37.102Z,101131.17
2019-01-12T11:08:07.077Z,101132.86
2019-01-12T11:10:36.412Z,101125.34
2019-01-12T11:13:06.153Z,101118.30
2019-01-12T11:15:35.550Z,101102.82
2019-01-12T11:18:05.357Z,101102.21
2019-01-12T11:20:34.643Z,101102.99
2019-01-12T11:23:03.790Z,101102.93
2019-01-12T11:25:32.948Z,101088.20
2019-01-12T11:28:02.805Z,101076.91
2019-01-12T11:30:32.314Z,101083.84
2019-01-12T11:33:01.461Z,101076.84
2019-01-12T11:35:30.614Z,101069.05
2019-01-12T11:37:59.792Z,101057.23
2019-01-12T11:40:28.977Z,101061.66
2019-01-12T11:42:58.235Z,101055.94
2019-01-12T11:45:27.423Z,101046.11
2019-01-12T11:47:56.598Z,101052.14
2019-01-12T11:50:25.815Z,101039.81
2019-01-12T11:52:55.282Z,101030.01
2019-01-12T11:55:24.412Z,101027.15
2019-01-12T11:57:53.663Z,101025.33
2019-01-12T12:00:28.298Z,101024.42
2019-01-12T12:02:57.603Z,101021.44
2019-01-12T12:05:26.744Z,101014.42
2019-01-12T12:07:56.015Z,101012.28
2019-01-12T12:10:25.294Z,101006.11
2019-01-12T12:12:54.574Z,100999.55
2019-01-12T12:15:24.102Z,101001.17
2019-01-12T12:17:53.834Z,101000.71
2019-01-12T12:20:27.797Z,100993.59
2019-01-12T12:22:56.954Z,100995.67
2019-01-12T12:25:26.127Z,100993.13
2019-01-12T12:27:55.476Z,100984.03
2019-01-12T12:30:26.762Z,100981.30
2019-01-12T12:32:56.074Z,100969.36
2019-01-12T12:35:25.265Z,100970.59
2019-01-12T12:37:54.537Z,100967.72
2019-01-12T12:40:24.246Z,100966.20
2019-01-12T12:42:53.404Z,100956.27
2019-01-12T12:45:25.427Z,100945.03
2019-01-12T12:47:54.598Z,100955.36
2019-01-12T12:50:23.882Z,100937.55
2019-01-12T12:52:53.028Z,100940.39
2019-01-12T12:55:22.285Z,100936.73
2019-01-12T12:57:51.496Z,100934.42
2019-01-12T13:00:24.146Z,100927.95
2019-01-12T13:02:53.391Z,100920.82
2019-01-12T13:05:22.795Z,100910.41
2019-01-12T13:07:52.132Z,100922.67
2019-01-12T13:10:25.135Z,100898.11
2019-01-12T13:12:54.679Z,100884.52
2019-01-12T13:15:23.840Z,100885.03
2019-01-12T13:17:53.143Z,100881.13
2019-01-12T13:20:23.801Z,100876.92
2019-01-12T13:22:52.983Z,100872.56
2019-01-12T13:25:22.125Z,100868.97
2019-01-12T13:27:51.404Z,100879.06
2019-01-12T13:30:25.534Z,100874.55
2019-01-12T13:32:54.704Z,100870.05
2019-01-12T13:35:24.048Z,100866.84
2019-01-12T13:37:53.221Z,100870.28
2019-01-12T13:40:24.697Z,100870.67
2019-01-12T13:42:53.923Z,100873.58
2019-01-12T13:45:23.188Z,100865.77
2019-01-12T13:47:52.460Z,100857.56
2019-01-12T13:50:23.789Z,100857.87
2019-01-12T13:52:52.915Z,100850.37
2019-01-12T13:55:22.209Z,100842.72
2019-01-12T13:57:51.396Z,100837.90
2019-01-12T14:00:32.866Z,100832.97
2019-01-12T14:03:02.257Z,100833.81
2019-01-12T14:05:31.507Z,100827.99
2019-01-12T14:08:02.829Z,100821.56
2019-01-12T14:10:32.065Z,100824.78
2019-01-12T14:13:02.178Z,100810.84
2019-01-12T14:15:31.332Z,100824.31
2019-01-12T14:18:00.665Z,100827.22
2019-01-12T14:20:32.313Z,100832.27
2019-01-12T14:23:02.618Z,100831.28
2019-01-12T14:25:31.895Z,100837.17
2019-01-12T14:28:01.035Z,100830.59
2019-01-12T14:30:30.350Z,100842.84
2019-01-12T14:32:59.563Z,100834.56
2019-01-12T14:35:28.762Z,100850.26
2019-01-12T14:37:57.888Z,100840.92
2019-01-12T14:40:27.107Z,100844.75
2019-01-12T14:42:56.378Z,100845.36
2019-01-12T14:45:27.828Z,100842.69
2019-01-12T14:47:57.062Z,100845.44
2019-01-12T14:50:26.502Z,100841.62
2019-01-12T14:52:55.991Z,100845.33
2019-01-12T14:55:25.431Z,100840.81
2019-01-12T14:58:01.670Z,100840.89
2019-01-12T15:00:27.618Z,100850.45
2019-01-12T15:02:56.816Z,100842.88
2019-01-12T15:05:28.298Z,100846.70
2019-01-12T15:07:57.614Z,100849.69
2019-01-12T15:10:26.906Z,100851.74
2019-01-12T15:12:56.087Z,100860.84
2019-01-12T15:15:25.320Z,100846.08
2019-01-12T15:17:54.487Z,100857.05
2019-01-12T15:20:25.984Z,100854.27
2019-01-12T15:22:55.139Z,100860.84
2019-01-12T15:25:24.399Z,100850.91
2019-01-12T15:27:53.543Z,100846.73
2019-01-12T15:30:25.052Z,100843.36
2019-01-12T15:32:54.390Z,100849.52
2019-01-12T15:35:24.849Z,100833.72
2019-01-12T15:37:54.036Z,100823.85
2019-01-12T15:40:24.894Z,100818.57
2019-01-12T15:42:54.055Z,100814.36
2019-01-12T15:45:24.584Z,100805.95
2019-01-12T15:47:53.735Z,100800.83
2019-01-12T15:50:26.321Z,100792.64
2019-01-12T15:52:55.553Z,100796.02
2019-01-12T15:55:24.896Z,100798.08
2019-01-12T15:57:54.030Z,100793.88
2019-01-12T16:00:28.189Z,100795.78
2019-01-12T16:02:57.915Z,100787.52
2019-01-12T16:05:27.965Z,100791.80
2019-01-12T16:07:57.166Z,100793.80
2019-01-12T16:10:26.544Z,100790.63
2019-01-12T16:12:55.714Z,100799.45
2019-01-12T16:15:26.542Z,100793.45
2019-01-12T16:17:56.152Z,100797.28
2019-01-12T16:20:37.340Z,100793.98
2019-01-12T16:23:06.606Z,100814.34
2019-01-12T16:25:35.752Z,100792.38
2019-01-12T16:28:04.889Z,100807.45
2019-01-12T16:30:34.285Z,100789.33
2019-01-12T16:33:03.843Z,100786.91
2019-01-12T16:35:33.148Z,100772.91
2019-01-12T16:38:03.320Z,100779.87
2019-01-12T16:40:32.559Z,100778.34
2019-01-12T16:43:02.604Z,100785.91
2019-01-12T16:45:31.915Z,100780.33
2019-01-12T16:48:02.230Z,100779.95
2019-01-12T16:50:31.377Z,100783.63
2019-01-12T16:53:00.560Z,100778.72
2019-01-12T16:55:29.740Z,100779.64
2019-01-12T16:57:58.896Z,100775.74
2019-01-12T17:00:30.114Z,100763.89
2019-01-12T17:03:00.031Z,100768.17
2019-01-12T17:05:29.392Z,100767.13
2019-01-12T17:07:58.574Z,100774.02
2019-01-12T17:10:28.058Z,100773.55
2019-01-12T17:12:57.257Z,100771.61
2019-01-12T17:15:26.618Z,100773.91
2019-01-12T17:17:55.817Z,100789.16
2019-01-12T17:20:27.126Z,100789.16
2019-01-12T17:22:58.804Z,100790.20
2019-01-12T17:25:28.030Z,100782.86
2019-01-12T17:27:57.224Z,100785.53
2019-01-12T17:30:26.626Z,100798.00
2019-01-12T17:32:55.815Z,100796.31
2019-01-12T17:35:25.226Z,100799.25
2019-01-12T17:37:54.394Z,100797.11
2019-01-12T17:40:25.246Z,100800.55
2019-01-12T17:42:54.396Z,100803.81
2019-01-12T17:45:25.330Z,100798.41
2019-01-12T17:47:54.520Z,100802.45
2019-01-12T17:50:25.656Z,100802.22
2019-01-12T17:52:55.078Z,100793.27
2019-01-12T17:55:26.138Z,100792.58
2019-01-12T17:57:55.317Z,100806.87
2019-01-12T18:00:51.741Z,100800.77
2019-01-12T18:03:20.986Z,100801.94
2019-01-12T18:05:50.393Z,100803.84
2019-01-12T18:08:19.528Z,100796.27
2019-01-12T18:10:48.807Z,100788.47
2019-01-12T18:13:20.249Z,100784.88
2019-01-12T18:15:49.418Z,100790.77
2019-01-12T18:18:18.594Z,100783.97
2019-01-12T18:20:47.736Z,100781.52
2019-01-12T18:23:16.862Z,100792.59
2019-01-12T18:25:46.548Z,100779.98
2019-01-12T18:28:15.821Z,100790.30
2019-01-12T18:30:44.988Z,100788.01
2019-01-12T18:33:14.192Z,100781.42
2019-01-12T18:35:43.376Z,100777.53
2019-01-12T18:38:12.536Z,100784.09
2019-01-12T18:40:41.709Z,100773.35
2019-01-12T18:43:10.896Z,100777.07
2019-01-12T18:45:40.387Z,100794.98
2019-01-12T18:48:09.743Z,100776.48
2019-01-12T18:50:38.959Z,100768.23
2019-01-12T18:53:08.276Z,100775.11
2019-01-12T18:55:37.557Z,100769.53
2019-01-12T18:58:06.795Z,100768.05
2019-01-12T19:00:36.027Z,100766.75
2019-01-12T19:03:05.495Z,100769.80
2019-01-12T19:05:34.630Z,100764.92
2019-01-12T19:08:04.285Z,100768.28
2019-01-12T19:10:33.534Z,100767.52
2019-01-12T19:13:03.072Z,100768.14
2019-01-12T19:15:32.757Z,100759.64
2019-01-12T19:18:01.907Z,100763.09
2019-01-12T19:20:31.164Z,100764.53
2019-01-12T19:23:00.456Z,100770.95
2019-01-12T19:25:29.699Z,100754.59
2019-01-12T19:27:58.904Z,100776.16
2019-01-12T19:30:28.158Z,100760.64
2019-01-12T19:32:57.328Z,100760.25
2019-01-12T19:35:26.556Z,100755.16
2019-01-12T19:37:55.907Z,100758.80
2019-01-12T19:40:26.262Z,100749.02
2019-01-12T19:42:55.779Z,100754.52
2019-01-12T19:45:24.979Z,100751.92
2019-01-12T19:47:54.308Z,100748.48
2019-01-12T19:50:27.643Z,100752.39
2019-01-12T19:52:57.482Z,100758.34
2019-01-12T19:55:26.796Z,100748.03
2019-01-12T19:57:56.032Z,100739.63
2019-01-12T20:00:33.029Z,100739.48
2019-01-12T20:03:03.930Z,100737.72
2019-01-12T20:05:33.206Z,100735.12
2019-01-12T20:08:02.366Z,100735.88
2019-01-12T20:10:31.647Z,100734.97
2019-01-12T20:13:02.279Z,100738.33
2019-01-12T20:15:31.916Z,100732.67
2019-01-12T20:18:02.265Z,100730.66
2019-01-12T20:20:34.737Z,100722.33
2019-01-12T20:23:04.127Z,100735.55
2019-01-12T20:25:33.911Z,100731.42
2019-01-12T20:28:14.966Z,100731.69
2019-01-12T20:31:27.179Z,100730.20
2019-01-12T20:34:08.215Z,100724.16
2019-01-12T20:37:06.318Z,100724.34
2019-01-12T20:39:57.925Z,100732.83
2019-01-12T20:43:08.131Z,100726.25
2019-01-12T20:46:04.262Z,100721.13
2019-01-12T20:48:59.253Z,100722.66
2019-01-12T20:51:59.238Z,100719.30
2019-01-12T20:55:17.101Z,100723.12
2019-01-12T20:58:33.346Z,100711.04
2019-01-12T21:01:40.830Z,100721.66
2019-01-12T21:04:55.629Z,100717.16
2019-01-12T21:08:20.993Z,100709.89
2019-01-12T21:11:43.427Z,100714.73
2019-01-12T21:14:43.140Z,100715.73
2019-01-12T21:17:14.743Z,100723.60
2019-01-12T21:19:48.055Z,100731.06
2019-01-12T21:22:15.137Z,100722.50
2019-01-12T21:24:44.397Z,100707.63
2019-01-12T21:27:13.782Z,100714.94
2019-01-12T21:29:43.043Z,100712.34
2019-01-12T21:32:12.318Z,100725.26
2019-01-12T21:34:41.452Z,100716.85
2019-01-12T21:37:11.004Z,100716.24
2019-01-12T21:39:40.167Z,100713.26
2019-01-12T21:42:09.328Z,100719.88
2019-01-12T21:44:38.491Z,100704.39
2019-01-12T21:47:07.639Z,100712.73
2019-01-12T21:49:36.811Z,100710.78
2019-01-12T21:52:05.993Z,100714.79
2019-01-12T21:54:35.136Z,100711.85
2019-01-12T21:57:04.588Z,100721.41
2019-01-12T21:59:33.871Z,100717.05
2019-01-12T22:02:03.379Z,100729.13
2019-01-12T22:04:32.693Z,100718.35
2019-01-12T22:07:04.834Z,100720.41
2019-01-12T22:09:34.114Z,100723.93
2019-01-12T22:12:03.384Z,100721.79
2019-01-12T22:14:32.629Z,100725.08
2019-01-12T22:17:01.915Z,100715.37
2019-01-12T22:19:31.203Z,100713.69
2019-01-12T22:22:00.417Z,100711.47
2019-01-12T22:24:29.548Z,100722.55
2019-01-12T22:26:58.714Z,100708.37
2019-01-12T22:29:27.952Z,100707.26
2019-01-12T22:31:57.370Z,100698.16
2019-01-12T22:34:26.558Z,100703.25
2019-01-12T22:36:55.699Z,100707.53
2019-01-12T22:39:24.866Z,100702.48
2019-01-12T22:41:54.047Z,100706.45
2019-01-12T22:44:23.169Z,100702.86
2019-01-12T22:46:52.341Z,100701.25
2019-01-12T22:49:21.522Z,100698.95
2019-01-12T22:51:51.077Z,100693.06
2019-01-12T22:54:20.267Z,100682.58
2019-01-12T22:56:49.592Z,100683.12
2019-01-12T22:59:18.866Z,100680.98
2019-01-12T23:01:54.637Z,100687.78
2019-01-12T23:04:25.756Z,100678.52
2019-01-12T23:06:55.022Z,100672.41
2019-01-12T23:09:24.673Z,100671.49
2019-01-12T23:11:53.863Z,100678.53
2019-01-12T23:14:23.013Z,100677.23
2019-01-12T23:16:52.164Z,100682.36
2019-01-12T23:19:21.386Z,100682.36
2019-01-12T23:21:50.627Z,100688.23
2019-01-12T23:24:19.786Z,100697.91
2019-01-12T23:26:48.930Z,100698.48
2019-01-12T23:29:18.065Z,100687.05
2019-01-12T23:31:47.236Z,100686.89
2019-01-12T23:34:16.512Z,100681.50
2019-01-12T23:36:45.638Z,100685.67
2019-01-12T23:39:14.799Z,100680.30
2019-01-12T23:41:43.962Z,100685.67
2019-01-12T23:44:15.044Z,100684.37
2019-01-12T23:46:44.039Z,100678.06
2019-01-12T23:49:13.193Z,100684.83
2019-01-12T23:51:42.421Z,100672.59
2019-01-12T23:54:11.598Z,100682.83
2019-01-12T23:56:40.744Z,100680.69
2019-01-12T23:59:09.888Z,100680.20
